Antwerp, OH

9:17 PM EDT on October 01, 2014 (GMT -0400)
Tom Kneubuhler, Woodburn, In | Change Station
CLOSE
Current Station
Personal Weather Station
Location: Woodburn, IN
Elevation: 751 ft
Nearby Weather Stations

Elev 751 ft 41.18 °N, 84.84 °W | Updated 13 minutes ago

Clear
Clear
53.7 °F
Feels Like 53.7 °F
N
0.0
Wind Variable Wind from SE
Gusts 0.0 mph

Today
High -- | Low -- °F
--% Chance of Precip.
Yesterday
High -- | Low -- °F
Precip. -- in
7:35 AM 7:20 PM
First Quarter, 53% visible
Pressure 30.02 in
Visibility 10.0 miles
Clouds Clear
Dew Point 49 °F
Humidity 85%
Rainfall 0.01 in
Snow Depth Not available.
UV 0 out of 12
Pollen 2.90 out of 12
Air Quality Not available.
Flu Activity Not available.
METAR KGWB 020055Z AUTO 00000KT 10SM CLR 13/09 A3002 RMK AO2

More Conditions Fewer Conditions

Pressure 30.02 in
Visibility 10.0 miles
Clouds Clear
Dew Point 49 °F
Humidity 85%
Rainfall 0.01 in
Snow Depth Not available.
UV 0 out of 12
Pollen 2.90 out of 12
Air Quality Not available.
Flu Activity Not available.
METAR KGWB 020055Z AUTO 00000KT 10SM CLR 13/09 A3002 RMK AO2

More Conditions Fewer Conditions

10-Day Weather Forecast

Almanac

Astronomy

Oct. 01, 2014 Rise Set
Actual Time 7:35 AM EDT 7:20 PM EDT
Civil Twilight 7:08 AM EDT 7:48 PM EDT
Nautical Twilight 6:36 AM EDT 8:20 PM EDT
Astronomical Twilight 6:03 AM EDT 8:52 PM EDT
Moon 2:38 PM EDT (10/1) No Moon Set
Length of Visible Light 12h 40m
Length of Day
11h 45m
Tomorrow will be 2m 42s shorter.
First Quarter, 53% of the Moon is Illuminated
Today
First Quarter
Oct 8
Full
Oct 15
Last Quarter
Oct 23
New
Oct 30
First Quarter

Today's Extremes

State Highs State Lows

Community

WunderPhotos

Upload Photos

1,758,112 photos uploaded!

WunderBlogs® & News

Nearby

Snow Depth

Station Depth Elevation
No new snow has been reported.

Earthquake Activity

City Distance Mag. Time & Date
No recent earthquake activity has been reported nearby.
Minimum magnitude displayed is 2.5.

Coastal Water Temperatures

Place Temperature
No Stations Reporting

Nearby Weather Stations